sensor_id;sensor_type;location;lat;lon;timestamp;P1;durP1;ratioP1;P2;durP2;ratioP2
1360;SDS011;674;45.552;-122.600;2022-09-17T00:01:38;1.80;;;0.90;;
1360;SDS011;674;45.552;-122.600;2022-09-17T00:04:08;2.50;;;0.90;;
1360;SDS011;674;45.552;-122.600;2022-09-17T00:06:37;2.00;;;1.10;;
1360;SDS011;674;45.552;-122.600;2022-09-17T00:09:06;2.27;;;1.03;;
1360;SDS011;674;45.552;-122.600;2022-09-17T00:11:36;4.03;;;1.20;;
1360;SDS011;674;45.552;-122.600;2022-09-17T00:14:07;2.80;;;1.10;;
1360;SDS011;674;45.552;-122.600;2022-09-17T00:16:44;4.97;;;1.00;;
1360;SDS011;674;45.552;-122.600;2022-09-17T00:19:16;4.80;;;1.20;;
1360;SDS011;674;45.552;-122.600;2022-09-17T00:21:46;1.53;;;0.80;;
1360;SDS011;674;45.552;-122.600;2022-09-17T00:24:16;1.77;;;0.90;;
1360;SDS011;674;45.552;-122.600;2022-09-17T00:26:46;3.63;;;1.23;;
1360;SDS011;674;45.552;-122.600;2022-09-17T00:29:15;1.50;;;0.90;;
1360;SDS011;674;45.552;-122.600;2022-09-17T00:31:43;4.13;;;2.10;;
1360;SDS011;674;45.552;-122.600;2022-09-17T00:34:12;1.77;;;0.93;;
1360;SDS011;674;45.552;-122.600;2022-09-17T00:36:40;2.37;;;0.97;;
1360;SDS011;674;45.552;-122.600;2022-09-17T00:39:10;1.90;;;0.80;;
1360;SDS011;674;45.552;-122.600;2022-09-17T00:41:38;2.63;;;0.80;;
1360;SDS011;674;45.552;-122.600;2022-09-17T00:47:29;2.13;;;0.90;;
1360;SDS011;674;45.552;-122.600;2022-09-17T00:50:20;1.80;;;0.90;;
1360;SDS011;674;45.552;-122.600;2022-09-17T00:52:58;1.33;;;0.80;;
1360;SDS011;674;45.552;-122.600;2022-09-17T00:55:42;1.30;;;0.70;;
1360;SDS011;674;45.552;-122.600;2022-09-17T00:58:17;1.73;;;0.70;;
1360;SDS011;674;45.552;-122.600;2022-09-17T01:00:48;2.50;;;0.83;;
1360;SDS011;674;45.552;-122.600;2022-09-17T01:03:16;2.23;;;0.90;;
1360;SDS011;674;45.552;-122.600;2022-09-17T01:05:46;1.60;;;0.80;;
1360;SDS011;674;45.552;-122.600;2022-09-17T01:14:43;1.67;;;0.90;;
1360;SDS011;674;45.552;-122.600;2022-09-17T01:25:21;4.87;;;1.43;;
1360;SDS011;674;45.552;-122.600;2022-09-17T01:36:13;2.90;;;1.10;;
1360;SDS011;674;45.552;-122.600;2022-09-17T01:39:11;4.33;;;0.80;;
1360;SDS011;674;45.552;-122.600;2022-09-17T01:41:44;1.87;;;0.97;;
1360;SDS011;674;45.552;-122.600;2022-09-17T01:47:15;2.30;;;0.80;;
1360;SDS011;674;45.552;-122.600;2022-09-17T01:50:07;1.57;;;0.80;;
1360;SDS011;674;45.552;-122.600;2022-09-17T01:52:44;1.80;;;0.90;;
1360;SDS011;674;45.552;-122.600;2022-09-17T01:55:15;2.43;;;0.80;;
1360;SDS011;674;45.552;-122.600;2022-09-17T01:57:50;2.47;;;1.10;;
1360;SDS011;674;45.552;-122.600;2022-09-17T02:00:22;1.60;;;0.80;;
1360;SDS011;674;45.552;-122.600;2022-09-17T02:03:01;1.90;;;1.20;;
1360;SDS011;674;45.552;-122.600;2022-09-17T02:08:35;1.60;;;0.90;;
1360;SDS011;674;45.552;-122.600;2022-09-17T02:11:15;1.67;;;1.10;;
1360;SDS011;674;45.552;-122.600;2022-09-17T02:14:06;2.10;;;1.30;;
1360;SDS011;674;45.552;-122.600;2022-09-17T02:16:38;1.90;;;1.10;;
1360;SDS011;674;45.552;-122.600;2022-09-17T02:19:19;2.30;;;1.27;;
1360;SDS011;674;45.552;-122.600;2022-09-17T02:30:08;2.23;;;1.20;;
1360;SDS011;674;45.552;-122.600;2022-09-17T02:32:36;2.90;;;1.00;;
1360;SDS011;674;45.552;-122.600;2022-09-17T02:35:05;1.70;;;0.90;;
1360;SDS011;674;45.552;-122.600;2022-09-17T02:37:34;2.40;;;1.10;;
1360;SDS011;674;45.552;-122.600;2022-09-17T02:40:03;2.20;;;1.03;;
1360;SDS011;674;45.552;-122.600;2022-09-17T02:42:41;2.50;;;1.60;;
1360;SDS011;674;45.552;-122.600;2022-09-17T02:56:38;2.97;;;1.60;;
1360;SDS011;674;45.552;-122.600;2022-09-17T02:59:46;3.00;;;1.60;;
1360;SDS011;674;45.552;-122.600;2022-09-17T03:04:41;2.60;;;1.57;;
1360;SDS011;674;45.552;-122.600;2022-09-17T03:07:13;2.93;;;1.53;;
1360;SDS011;674;45.552;-122.600;2022-09-17T03:09:45;2.87;;;1.40;;
1360;SDS011;674;45.552;-122.600;2022-09-17T03:12:14;2.10;;;1.40;;
1360;SDS011;674;45.552;-122.600;2022-09-17T03:14:42;2.03;;;1.27;;
1360;SDS011;674;45.552;-122.600;2022-09-17T03:17:11;2.23;;;1.40;;
1360;SDS011;674;45.552;-122.600;2022-09-17T03:19:41;3.50;;;1.43;;
1360;SDS011;674;45.552;-122.600;2022-09-17T03:22:09;3.10;;;1.90;;
1360;SDS011;674;45.552;-122.600;2022-09-17T03:24:38;1.93;;;1.70;;
1360;SDS011;674;45.552;-122.600;2022-09-17T03:27:07;3.80;;;1.10;;
1360;SDS011;674;45.552;-122.600;2022-09-17T03:29:35;1.73;;;1.30;;
1360;SDS011;674;45.552;-122.600;2022-09-17T03:32:04;6.80;;;1.40;;
1360;SDS011;674;45.552;-122.600;2022-09-17T03:34:33;1.73;;;1.40;;
1360;SDS011;674;45.552;-122.600;2022-09-17T03:37:01;2.60;;;1.30;;
1360;SDS011;674;45.552;-122.600;2022-09-17T03:39:30;2.57;;;1.37;;
1360;SDS011;674;45.552;-122.600;2022-09-17T03:41:58;2.33;;;1.37;;
1360;SDS011;674;45.552;-122.600;2022-09-17T03:44:27;2.03;;;1.40;;
1360;SDS011;674;45.552;-122.600;2022-09-17T03:46:55;1.93;;;1.30;;
1360;SDS011;674;45.552;-122.600;2022-09-17T03:49:24;2.73;;;1.50;;
1360;SDS011;674;45.552;-122.600;2022-09-17T03:51:52;5.50;;;1.50;;
1360;SDS011;674;45.552;-122.600;2022-09-17T03:54:21;2.73;;;1.37;;
1360;SDS011;674;45.552;-122.600;2022-09-17T03:56:49;2.87;;;1.40;;
1360;SDS011;674;45.552;-122.600;2022-09-17T03:59:17;2.13;;;1.30;;
1360;SDS011;674;45.552;-122.600;2022-09-17T04:01:46;2.03;;;1.10;;
1360;SDS011;674;45.552;-122.600;2022-09-17T04:04:14;2.10;;;1.10;;
1360;SDS011;674;45.552;-122.600;2022-09-17T04:06:43;1.90;;;1.00;;
1360;SDS011;674;45.552;-122.600;2022-09-17T04:09:11;6.00;;;1.30;;
1360;SDS011;674;45.552;-122.600;2022-09-17T04:11:40;1.80;;;0.73;;
1360;SDS011;674;45.552;-122.600;2022-09-17T04:14:08;1.57;;;0.83;;
1360;SDS011;674;45.552;-122.600;2022-09-17T04:16:36;1.67;;;0.93;;
1360;SDS011;674;45.552;-122.600;2022-09-17T04:19:05;2.40;;;0.90;;
1360;SDS011;674;45.552;-122.600;2022-09-17T04:21:33;1.60;;;0.93;;
1360;SDS011;674;45.552;-122.600;2022-09-17T04:24:02;1.80;;;1.10;;
1360;SDS011;674;45.552;-122.600;2022-09-17T04:26:30;1.70;;;0.90;;
1360;SDS011;674;45.552;-122.600;2022-09-17T04:28:59;3.13;;;1.20;;
1360;SDS011;674;45.552;-122.600;2022-09-17T04:31:27;1.50;;;0.70;;
1360;SDS011;674;45.552;-122.600;2022-09-17T04:33:56;2.20;;;1.30;;
1360;SDS011;674;45.552;-122.600;2022-09-17T04:36:24;1.30;;;0.70;;
1360;SDS011;674;45.552;-122.600;2022-09-17T04:38:53;1.30;;;0.73;;
1360;SDS011;674;45.552;-122.600;2022-09-17T04:41:21;1.43;;;0.90;;
1360;SDS011;674;45.552;-122.600;2022-09-17T04:43:49;2.50;;;0.80;;
1360;SDS011;674;45.552;-122.600;2022-09-17T04:46:18;1.93;;;0.90;;
1360;SDS011;674;45.552;-122.600;2022-09-17T04:48:47;1.80;;;0.97;;
1360;SDS011;674;45.552;-122.600;2022-09-17T04:51:15;1.30;;;0.80;;
1360;SDS011;674;45.552;-122.600;2022-09-17T04:53:43;1.90;;;1.00;;
1360;SDS011;674;45.552;-122.600;2022-09-17T04:56:12;1.70;;;1.27;;
1360;SDS011;674;45.552;-122.600;2022-09-17T04:58:40;1.80;;;1.20;;
1360;SDS011;674;45.552;-122.600;2022-09-17T05:01:08;1.70;;;1.00;;
1360;SDS011;674;45.552;-122.600;2022-09-17T05:03:37;1.80;;;1.20;;
1360;SDS011;674;45.552;-122.600;2022-09-17T05:06:06;3.87;;;1.30;;
1360;SDS011;674;45.552;-122.600;2022-09-17T05:08:34;2.60;;;1.50;;
1360;SDS011;674;45.552;-122.600;2022-09-17T05:11:02;2.20;;;1.20;;
1360;SDS011;674;45.552;-122.600;2022-09-17T05:13:31;3.60;;;1.30;;
1360;SDS011;674;45.552;-122.600;2022-09-17T05:15:59;2.23;;;1.23;;
1360;SDS011;674;45.552;-122.600;2022-09-17T05:18:28;4.03;;;1.40;;
1360;SDS011;674;45.552;-122.600;2022-09-17T05:20:57;3.40;;;1.47;;
1360;SDS011;674;45.552;-122.600;2022-09-17T05:23:26;2.83;;;1.60;;
1360;SDS011;674;45.552;-122.600;2022-09-17T05:25:57;2.57;;;1.70;;
1360;SDS011;674;45.552;-122.600;2022-09-17T05:28:27;2.33;;;1.43;;
1360;SDS011;674;45.552;-122.600;2022-09-17T05:30:58;3.20;;;1.30;;
1360;SDS011;674;45.552;-122.600;2022-09-17T05:33:28;2.10;;;1.30;;
1360;SDS011;674;45.552;-122.600;2022-09-17T05:35:56;2.47;;;1.60;;
1360;SDS011;674;45.552;-122.600;2022-09-17T05:38:26;2.37;;;1.50;;
1360;SDS011;674;45.552;-122.600;2022-09-17T05:40:55;2.40;;;1.47;;
1360;SDS011;674;45.552;-122.600;2022-09-17T05:43:23;2.90;;;1.80;;
1360;SDS011;674;45.552;-122.600;2022-09-17T05:45:53;3.07;;;1.37;;
1360;SDS011;674;45.552;-122.600;2022-09-17T05:48:21;7.17;;;2.63;;
1360;SDS011;674;45.552;-122.600;2022-09-17T05:50:49;3.43;;;1.97;;
1360;SDS011;674;45.552;-122.600;2022-09-17T05:53:18;4.23;;;1.60;;
1360;SDS011;674;45.552;-122.600;2022-09-17T05:55:46;6.30;;;1.87;;
1360;SDS011;674;45.552;-122.600;2022-09-17T05:58:16;4.73;;;1.83;;
1360;SDS011;674;45.552;-122.600;2022-09-17T06:00:45;4.37;;;1.93;;
1360;SDS011;674;45.552;-122.600;2022-09-17T06:03:16;3.57;;;1.50;;
1360;SDS011;674;45.552;-122.600;2022-09-17T06:05:56;3.80;;;2.00;;
1360;SDS011;674;45.552;-122.600;2022-09-17T06:08:26;2.67;;;1.80;;
1360;SDS011;674;45.552;-122.600;2022-09-17T06:10:55;3.87;;;1.70;;
1360;SDS011;674;45.552;-122.600;2022-09-17T06:13:27;2.23;;;1.60;;
1360;SDS011;674;45.552;-122.600;2022-09-17T06:15:57;4.27;;;1.70;;
1360;SDS011;674;45.552;-122.600;2022-09-17T06:18:26;2.80;;;1.90;;
1360;SDS011;674;45.552;-122.600;2022-09-17T06:20:57;4.27;;;2.23;;
1360;SDS011;674;45.552;-122.600;2022-09-17T06:23:27;3.47;;;1.70;;
1360;SDS011;674;45.552;-122.600;2022-09-17T06:26:03;3.60;;;1.93;;
1360;SDS011;674;45.552;-122.600;2022-09-17T06:28:33;3.77;;;1.67;;
1360;SDS011;674;45.552;-122.600;2022-09-17T06:31:07;5.10;;;1.97;;
1360;SDS011;674;45.552;-122.600;2022-09-17T06:33:37;2.90;;;1.80;;
1360;SDS011;674;45.552;-122.600;2022-09-17T06:36:07;3.70;;;2.00;;
1360;SDS011;674;45.552;-122.600;2022-09-17T06:38:40;3.60;;;2.17;;
1360;SDS011;674;45.552;-122.600;2022-09-17T06:41:12;4.70;;;1.87;;
1360;SDS011;674;45.552;-122.600;2022-09-17T06:43:42;2.60;;;1.63;;
1360;SDS011;674;45.552;-122.600;2022-09-17T06:46:11;3.67;;;1.43;;
1360;SDS011;674;45.552;-122.600;2022-09-17T06:48:39;2.87;;;1.70;;
1360;SDS011;674;45.552;-122.600;2022-09-17T06:51:09;5.73;;;1.90;;
1360;SDS011;674;45.552;-122.600;2022-09-17T06:53:38;2.53;;;1.43;;
1360;SDS011;674;45.552;-122.600;2022-09-17T06:56:07;3.03;;;1.80;;
1360;SDS011;674;45.552;-122.600;2022-09-17T06:58:36;4.23;;;2.00;;
1360;SDS011;674;45.552;-122.600;2022-09-17T07:01:05;3.67;;;2.37;;
1360;SDS011;674;45.552;-122.600;2022-09-17T07:03:34;9.70;;;2.10;;
1360;SDS011;674;45.552;-122.600;2022-09-17T07:06:03;3.70;;;1.77;;
1360;SDS011;674;45.552;-122.600;2022-09-17T07:08:36;3.53;;;2.00;;
1360;SDS011;674;45.552;-122.600;2022-09-17T07:11:05;4.50;;;1.93;;
1360;SDS011;674;45.552;-122.600;2022-09-17T07:13:34;4.37;;;2.00;;
1360;SDS011;674;45.552;-122.600;2022-09-17T07:16:03;2.43;;;1.60;;
1360;SDS011;674;45.552;-122.600;2022-09-17T07:18:32;3.83;;;1.80;;
1360;SDS011;674;45.552;-122.600;2022-09-17T07:21:02;4.93;;;1.93;;
1360;SDS011;674;45.552;-122.600;2022-09-17T07:23:33;4.77;;;2.13;;
1360;SDS011;674;45.552;-122.600;2022-09-17T07:26:03;6.13;;;2.27;;
1360;SDS011;674;45.552;-122.600;2022-09-17T07:28:39;2.67;;;2.27;;
1360;SDS011;674;45.552;-122.600;2022-09-17T07:31:10;6.00;;;2.40;;
1360;SDS011;674;45.552;-122.600;2022-09-17T07:33:42;5.07;;;2.10;;
1360;SDS011;674;45.552;-122.600;2022-09-17T07:36:12;3.23;;;2.13;;
1360;SDS011;674;45.552;-122.600;2022-09-17T07:38:43;3.40;;;1.80;;
1360;SDS011;674;45.552;-122.600;2022-09-17T07:41:13;6.73;;;2.10;;
1360;SDS011;674;45.552;-122.600;2022-09-17T07:43:43;4.53;;;2.20;;
1360;SDS011;674;45.552;-122.600;2022-09-17T07:46:16;4.30;;;2.50;;
1360;SDS011;674;45.552;-122.600;2022-09-17T07:48:46;4.10;;;2.13;;
1360;SDS011;674;45.552;-122.600;2022-09-17T07:51:16;3.63;;;2.27;;
1360;SDS011;674;45.552;-122.600;2022-09-17T07:53:50;6.80;;;3.63;;
1360;SDS011;674;45.552;-122.600;2022-09-17T07:56:19;4.73;;;2.30;;
1360;SDS011;674;45.552;-122.600;2022-09-17T07:58:49;6.60;;;3.23;;
1360;SDS011;674;45.552;-122.600;2022-09-17T08:01:18;5.20;;;2.57;;
1360;SDS011;674;45.552;-122.600;2022-09-17T08:03:50;6.93;;;2.53;;
1360;SDS011;674;45.552;-122.600;2022-09-17T08:06:21;3.17;;;2.10;;
1360;SDS011;674;45.552;-122.600;2022-09-17T08:08:57;6.40;;;2.40;;
1360;SDS011;674;45.552;-122.600;2022-09-17T08:11:26;6.20;;;2.50;;
1360;SDS011;674;45.552;-122.600;2022-09-17T08:14:16;3.57;;;2.27;;
1360;SDS011;674;45.552;-122.600;2022-09-17T08:16:45;3.70;;;2.37;;
1360;SDS011;674;45.552;-122.600;2022-09-17T08:19:14;4.37;;;3.30;;
1360;SDS011;674;45.552;-122.600;2022-09-17T08:21:45;4.43;;;2.47;;
1360;SDS011;674;45.552;-122.600;2022-09-17T08:24:14;4.43;;;2.57;;
1360;SDS011;674;45.552;-122.600;2022-09-17T08:26:42;5.43;;;2.10;;
1360;SDS011;674;45.552;-122.600;2022-09-17T08:29:11;4.57;;;2.60;;
1360;SDS011;674;45.552;-122.600;2022-09-17T08:31:40;6.43;;;2.70;;
1360;SDS011;674;45.552;-122.600;2022-09-17T08:34:08;4.90;;;2.57;;
1360;SDS011;674;45.552;-122.600;2022-09-17T08:36:37;7.27;;;3.10;;
1360;SDS011;674;45.552;-122.600;2022-09-17T08:39:06;5.50;;;2.80;;
1360;SDS011;674;45.552;-122.600;2022-09-17T08:44:25;4.90;;;2.60;;
1360;SDS011;674;45.552;-122.600;2022-09-17T08:47:01;4.47;;;3.17;;
1360;SDS011;674;45.552;-122.600;2022-09-17T08:49:57;3.03;;;2.20;;
1360;SDS011;674;45.552;-122.600;2022-09-17T09:01:11;6.70;;;3.10;;
1360;SDS011;674;45.552;-122.600;2022-09-17T09:06:40;6.17;;;3.17;;
1360;SDS011;674;45.552;-122.600;2022-09-17T09:09:14;5.40;;;3.10;;
1360;SDS011;674;45.552;-122.600;2022-09-17T09:11:44;5.43;;;3.40;;
1360;SDS011;674;45.552;-122.600;2022-09-17T09:16:46;8.43;;;3.00;;
1360;SDS011;674;45.552;-122.600;2022-09-17T09:22:04;7.63;;;2.63;;
1360;SDS011;674;45.552;-122.600;2022-09-17T09:30:17;5.63;;;3.20;;
1360;SDS011;674;45.552;-122.600;2022-09-17T09:35:25;6.07;;;4.10;;
1360;SDS011;674;45.552;-122.600;2022-09-17T09:38:00;4.97;;;3.13;;
1360;SDS011;674;45.552;-122.600;2022-09-17T09:40:53;4.80;;;3.37;;
1360;SDS011;674;45.552;-122.600;2022-09-17T09:43:54;8.10;;;3.70;;
1360;SDS011;674;45.552;-122.600;2022-09-17T09:46:35;3.83;;;3.30;;
1360;SDS011;674;45.552;-122.600;2022-09-17T09:52:28;5.33;;;3.10;;
1360;SDS011;674;45.552;-122.600;2022-09-17T09:55:22;5.90;;;3.60;;
1360;SDS011;674;45.552;-122.600;2022-09-17T10:00:43;4.60;;;3.00;;
1360;SDS011;674;45.552;-122.600;2022-09-17T10:03:22;10.77;;;4.07;;
1360;SDS011;674;45.552;-122.600;2022-09-17T10:05:57;5.13;;;3.57;;
1360;SDS011;674;45.552;-122.600;2022-09-17T10:08:32;5.23;;;3.43;;
1360;SDS011;674;45.552;-122.600;2022-09-17T10:11:04;4.93;;;4.03;;
1360;SDS011;674;45.552;-122.600;2022-09-17T10:13:46;6.43;;;4.17;;
1360;SDS011;674;45.552;-122.600;2022-09-17T10:16:19;6.60;;;3.60;;
1360;SDS011;674;45.552;-122.600;2022-09-17T10:18:48;7.13;;;4.00;;
1360;SDS011;674;45.552;-122.600;2022-09-17T10:21:41;5.83;;;3.20;;
1360;SDS011;674;45.552;-122.600;2022-09-17T10:24:26;6.97;;;3.60;;
1360;SDS011;674;45.552;-122.600;2022-09-17T10:27:00;6.37;;;3.50;;
1360;SDS011;674;45.552;-122.600;2022-09-17T10:29:41;5.43;;;3.83;;
1360;SDS011;674;45.552;-122.600;2022-09-17T10:32:18;6.43;;;3.40;;
1360;SDS011;674;45.552;-122.600;2022-09-17T10:37:34;6.60;;;4.53;;
1360;SDS011;674;45.552;-122.600;2022-09-17T10:42:47;5.27;;;3.80;;
1360;SDS011;674;45.552;-122.600;2022-09-17T10:45:24;5.70;;;3.27;;
1360;SDS011;674;45.552;-122.600;2022-09-17T10:47:54;6.03;;;3.90;;
1360;SDS011;674;45.552;-122.600;2022-09-17T10:52:57;6.33;;;3.37;;
1360;SDS011;674;45.552;-122.600;2022-09-17T10:55:36;4.97;;;4.03;;
1360;SDS011;674;45.552;-122.600;2022-09-17T11:03:42;6.10;;;4.40;;
1360;SDS011;674;45.552;-122.600;2022-09-17T11:06:28;6.30;;;3.80;;
1360;SDS011;674;45.552;-122.600;2022-09-17T11:09:05;7.87;;;4.03;;
1360;SDS011;674;45.552;-122.600;2022-09-17T11:11:50;6.20;;;3.93;;
1360;SDS011;674;45.552;-122.600;2022-09-17T11:17:25;5.90;;;4.70;;
1360;SDS011;674;45.552;-122.600;2022-09-17T11:39:17;6.20;;;4.73;;
1360;SDS011;674;45.552;-122.600;2022-09-17T11:42:09;9.53;;;4.27;;
1360;SDS011;674;45.552;-122.600;2022-09-17T11:47:28;6.30;;;4.47;;
1360;SDS011;674;45.552;-122.600;2022-09-17T11:50:24;7.40;;;4.20;;
1360;SDS011;674;45.552;-122.600;2022-09-17T11:55:38;7.07;;;5.30;;
1360;SDS011;674;45.552;-122.600;2022-09-17T11:58:13;8.50;;;5.17;;
1360;SDS011;674;45.552;-122.600;2022-09-17T12:00:52;6.17;;;5.07;;
1360;SDS011;674;45.552;-122.600;2022-09-17T12:03:34;5.30;;;4.10;;
1360;SDS011;674;45.552;-122.600;2022-09-17T12:06:21;6.30;;;4.37;;
1360;SDS011;674;45.552;-122.600;2022-09-17T12:09:08;7.37;;;5.10;;
1360;SDS011;674;45.552;-122.600;2022-09-17T12:14:25;6.50;;;5.03;;
1360;SDS011;674;45.552;-122.600;2022-09-17T12:17:05;5.23;;;4.40;;
1360;SDS011;674;45.552;-122.600;2022-09-17T12:19:41;10.20;;;5.70;;
1360;SDS011;674;45.552;-122.600;2022-09-17T12:22:24;9.73;;;5.30;;
1360;SDS011;674;45.552;-122.600;2022-09-17T12:24:56;6.73;;;4.60;;
1360;SDS011;674;45.552;-122.600;2022-09-17T12:27:32;6.50;;;4.93;;
1360;SDS011;674;45.552;-122.600;2022-09-17T12:30:32;6.20;;;4.87;;
1360;SDS011;674;45.552;-122.600;2022-09-17T12:50:06;8.23;;;5.30;;
1360;SDS011;674;45.552;-122.600;2022-09-17T13:21:48;7.97;;;5.43;;
1360;SDS011;674;45.552;-122.600;2022-09-17T13:24:28;7.60;;;5.90;;
1360;SDS011;674;45.552;-122.600;2022-09-17T13:26:58;9.57;;;6.23;;
1360;SDS011;674;45.552;-122.600;2022-09-17T13:40:23;11.70;;;6.33;;
1360;SDS011;674;45.552;-122.600;2022-09-17T13:42:55;5.63;;;5.00;;
1360;SDS011;674;45.552;-122.600;2022-09-17T13:45:32;6.63;;;5.77;;
1360;SDS011;674;45.552;-122.600;2022-09-17T13:48:22;7.90;;;6.30;;
1360;SDS011;674;45.552;-122.600;2022-09-17T13:50:53;6.00;;;5.20;;
1360;SDS011;674;45.552;-122.600;2022-09-17T13:53:22;6.77;;;5.97;;
1360;SDS011;674;45.552;-122.600;2022-09-17T13:55:58;10.00;;;5.53;;
1360;SDS011;674;45.552;-122.600;2022-09-17T13:58:31;7.30;;;5.63;;
1360;SDS011;674;45.552;-122.600;2022-09-17T14:01:54;10.20;;;6.77;;
1360;SDS011;674;45.552;-122.600;2022-09-17T14:04:34;7.70;;;5.83;;
1360;SDS011;674;45.552;-122.600;2022-09-17T14:09:55;9.13;;;6.37;;
1360;SDS011;674;45.552;-122.600;2022-09-17T14:21:05;6.47;;;5.83;;
1360;SDS011;674;45.552;-122.600;2022-09-17T14:24:23;8.53;;;5.77;;
1360;SDS011;674;45.552;-122.600;2022-09-17T14:32:53;8.83;;;6.00;;
1360;SDS011;674;45.552;-122.600;2022-09-17T14:35:27;6.63;;;5.63;;
1360;SDS011;674;45.552;-122.600;2022-09-17T14:37:58;7.97;;;5.97;;
1360;SDS011;674;45.552;-122.600;2022-09-17T14:40:39;9.60;;;6.67;;
1360;SDS011;674;45.552;-122.600;2022-09-17T14:46:02;10.07;;;5.90;;
1360;SDS011;674;45.552;-122.600;2022-09-17T14:48:33;9.23;;;6.00;;
1360;SDS011;674;45.552;-122.600;2022-09-17T14:53:47;8.23;;;5.70;;
1360;SDS011;674;45.552;-122.600;2022-09-17T14:56:43;8.03;;;5.80;;
1360;SDS011;674;45.552;-122.600;2022-09-17T15:02:00;6.80;;;5.73;;
1360;SDS011;674;45.552;-122.600;2022-09-17T15:04:29;6.93;;;5.97;;
1360;SDS011;674;45.552;-122.600;2022-09-17T15:07:06;8.13;;;5.70;;
1360;SDS011;674;45.552;-122.600;2022-09-17T15:09:36;6.20;;;5.30;;
1360;SDS011;674;45.552;-122.600;2022-09-17T15:12:05;7.27;;;5.77;;
1360;SDS011;674;45.552;-122.600;2022-09-17T15:14:35;6.97;;;6.27;;
1360;SDS011;674;45.552;-122.600;2022-09-17T15:17:06;13.30;;;7.30;;
1360;SDS011;674;45.552;-122.600;2022-09-17T15:19:45;8.57;;;6.00;;
1360;SDS011;674;45.552;-122.600;2022-09-17T15:30:12;9.00;;;7.07;;
1360;SDS011;674;45.552;-122.600;2022-09-17T15:35:25;8.03;;;6.10;;
1360;SDS011;674;45.552;-122.600;2022-09-17T15:37:57;11.60;;;5.90;;
1360;SDS011;674;45.552;-122.600;2022-09-17T15:40:49;7.80;;;6.70;;
1360;SDS011;674;45.552;-122.600;2022-09-17T15:43:28;8.90;;;5.77;;
1360;SDS011;674;45.552;-122.600;2022-09-17T15:46:23;7.93;;;5.97;;
1360;SDS011;674;45.552;-122.600;2022-09-17T15:49:00;7.87;;;6.50;;
1360;SDS011;674;45.552;-122.600;2022-09-17T15:51:33;7.57;;;6.77;;
1360;SDS011;674;45.552;-122.600;2022-09-17T15:54:03;8.80;;;5.93;;
1360;SDS011;674;45.552;-122.600;2022-09-17T15:56:36;7.97;;;6.60;;
1360;SDS011;674;45.552;-122.600;2022-09-17T16:01:50;11.10;;;5.83;;
1360;SDS011;674;45.552;-122.600;2022-09-17T16:04:27;8.03;;;5.97;;
1360;SDS011;674;45.552;-122.600;2022-09-17T16:06:58;6.10;;;4.47;;
1360;SDS011;674;45.552;-122.600;2022-09-17T16:12:11;6.43;;;4.20;;
1360;SDS011;674;45.552;-122.600;2022-09-17T16:14:43;5.97;;;4.20;;
1360;SDS011;674;45.552;-122.600;2022-09-17T16:17:26;4.83;;;3.40;;
1360;SDS011;674;45.552;-122.600;2022-09-17T16:19:55;5.63;;;4.03;;
1360;SDS011;674;45.552;-122.600;2022-09-17T16:22:31;3.83;;;3.47;;
1360;SDS011;674;45.552;-122.600;2022-09-17T16:24:59;5.30;;;3.57;;
1360;SDS011;674;45.552;-122.600;2022-09-17T16:27:30;5.20;;;4.20;;
1360;SDS011;674;45.552;-122.600;2022-09-17T16:30:06;5.97;;;5.23;;
1360;SDS011;674;45.552;-122.600;2022-09-17T16:32:35;6.87;;;4.90;;
1360;SDS011;674;45.552;-122.600;2022-09-17T16:35:04;5.13;;;4.30;;
1360;SDS011;674;45.552;-122.600;2022-09-17T16:37:33;5.63;;;4.30;;
1360;SDS011;674;45.552;-122.600;2022-09-17T16:40:02;4.80;;;4.30;;
1360;SDS011;674;45.552;-122.600;2022-09-17T16:42:31;4.87;;;4.37;;
1360;SDS011;674;45.552;-122.600;2022-09-17T16:45:00;4.90;;;3.87;;
1360;SDS011;674;45.552;-122.600;2022-09-17T16:47:34;7.40;;;4.73;;
1360;SDS011;674;45.552;-122.600;2022-09-17T16:50:11;6.00;;;4.50;;
1360;SDS011;674;45.552;-122.600;2022-09-17T16:52:42;5.03;;;3.97;;
1360;SDS011;674;45.552;-122.600;2022-09-17T16:55:13;6.07;;;4.70;;
1360;SDS011;674;45.552;-122.600;2022-09-17T16:57:46;5.83;;;5.23;;
1360;SDS011;674;45.552;-122.600;2022-09-17T17:00:16;6.50;;;4.70;;
1360;SDS011;674;45.552;-122.600;2022-09-17T17:02:54;5.53;;;4.50;;
1360;SDS011;674;45.552;-122.600;2022-09-17T17:05:24;5.10;;;4.37;;
1360;SDS011;674;45.552;-122.600;2022-09-17T17:07:54;9.67;;;4.53;;
1360;SDS011;674;45.552;-122.600;2022-09-17T17:10:31;4.90;;;4.23;;
1360;SDS011;674;45.552;-122.600;2022-09-17T17:12:59;7.67;;;5.07;;
1360;SDS011;674;45.552;-122.600;2022-09-17T17:15:28;6.90;;;4.20;;
1360;SDS011;674;45.552;-122.600;2022-09-17T17:17:56;4.73;;;4.17;;
1360;SDS011;674;45.552;-122.600;2022-09-17T17:20:25;5.53;;;4.40;;
1360;SDS011;674;45.552;-122.600;2022-09-17T17:22:54;5.20;;;4.63;;
1360;SDS011;674;45.552;-122.600;2022-09-17T17:25:22;5.50;;;4.77;;
1360;SDS011;674;45.552;-122.600;2022-09-17T17:27:50;7.20;;;4.80;;
1360;SDS011;674;45.552;-122.600;2022-09-17T17:30:19;10.20;;;4.83;;
1360;SDS011;674;45.552;-122.600;2022-09-17T17:32:48;7.20;;;4.70;;
1360;SDS011;674;45.552;-122.600;2022-09-17T17:35:19;5.57;;;5.07;;
1360;SDS011;674;45.552;-122.600;2022-09-17T17:37:47;6.03;;;5.00;;
1360;SDS011;674;45.552;-122.600;2022-09-17T17:40:17;5.87;;;5.27;;
1360;SDS011;674;45.552;-122.600;2022-09-17T17:42:50;7.33;;;5.10;;
1360;SDS011;674;45.552;-122.600;2022-09-17T17:45:19;6.27;;;5.30;;
1360;SDS011;674;45.552;-122.600;2022-09-17T17:47:47;4.90;;;3.87;;
1360;SDS011;674;45.552;-122.600;2022-09-17T17:50:16;6.13;;;4.40;;
1360;SDS011;674;45.552;-122.600;2022-09-17T17:52:44;6.33;;;4.30;;
1360;SDS011;674;45.552;-122.600;2022-09-17T17:55:15;5.20;;;4.57;;
1360;SDS011;674;45.552;-122.600;2022-09-17T17:57:43;6.40;;;5.57;;
1360;SDS011;674;45.552;-122.600;2022-09-17T18:00:12;6.13;;;5.07;;
1360;SDS011;674;45.552;-122.600;2022-09-17T18:02:42;5.37;;;4.20;;
1360;SDS011;674;45.552;-122.600;2022-09-17T18:05:11;9.27;;;5.53;;
1360;SDS011;674;45.552;-122.600;2022-09-17T18:07:39;6.20;;;5.23;;
1360;SDS011;674;45.552;-122.600;2022-09-17T18:10:08;7.97;;;5.33;;
1360;SDS011;674;45.552;-122.600;2022-09-17T18:12:37;6.27;;;4.80;;
1360;SDS011;674;45.552;-122.600;2022-09-17T18:15:05;5.60;;;4.40;;
1360;SDS011;674;45.552;-122.600;2022-09-17T18:17:34;7.10;;;4.63;;
1360;SDS011;674;45.552;-122.600;2022-09-17T18:20:03;7.20;;;5.87;;
1360;SDS011;674;45.552;-122.600;2022-09-17T18:22:31;6.60;;;5.87;;
1360;SDS011;674;45.552;-122.600;2022-09-17T18:25:00;5.00;;;4.50;;
1360;SDS011;674;45.552;-122.600;2022-09-17T18:27:28;5.73;;;5.03;;
1360;SDS011;674;45.552;-122.600;2022-09-17T18:29:56;9.80;;;6.23;;
1360;SDS011;674;45.552;-122.600;2022-09-17T18:32:25;5.90;;;5.20;;
1360;SDS011;674;45.552;-122.600;2022-09-17T18:34:53;5.70;;;5.10;;
1360;SDS011;674;45.552;-122.600;2022-09-17T18:37:22;6.77;;;5.00;;
1360;SDS011;674;45.552;-122.600;2022-09-17T18:39:51;5.20;;;4.47;;
1360;SDS011;674;45.552;-122.600;2022-09-17T18:42:25;7.63;;;4.80;;
1360;SDS011;674;45.552;-122.600;2022-09-17T18:44:53;5.57;;;4.97;;
1360;SDS011;674;45.552;-122.600;2022-09-17T18:47:22;4.93;;;4.47;;
1360;SDS011;674;45.552;-122.600;2022-09-17T18:49:50;5.50;;;4.30;;
1360;SDS011;674;45.552;-122.600;2022-09-17T18:52:18;6.07;;;3.90;;
1360;SDS011;674;45.552;-122.600;2022-09-17T18:54:47;6.03;;;4.07;;
1360;SDS011;674;45.552;-122.600;2022-09-17T18:57:15;4.90;;;4.33;;
1360;SDS011;674;45.552;-122.600;2022-09-17T18:59:44;7.07;;;4.50;;
1360;SDS011;674;45.552;-122.600;2022-09-17T19:02:12;6.03;;;3.80;;
1360;SDS011;674;45.552;-122.600;2022-09-17T19:04:41;4.80;;;4.30;;
1360;SDS011;674;45.552;-122.600;2022-09-17T19:07:09;6.33;;;4.50;;
1360;SDS011;674;45.552;-122.600;2022-09-17T19:09:38;4.80;;;3.93;;
1360;SDS011;674;45.552;-122.600;2022-09-17T19:12:06;7.60;;;4.40;;